createdAt,value
2019-03-03T00:01:22.946Z,23.10
2019-03-03T00:03:53.506Z,22.05
2019-03-03T00:06:22.943Z,22.27
2019-03-03T00:08:52.473Z,22.95
2019-03-03T00:11:21.929Z,21.75
2019-03-03T00:13:51.511Z,22.52
2019-03-03T00:16:21.340Z,21.35
2019-03-03T00:18:51.615Z,22.15
2019-03-03T00:21:21.176Z,21.77
2019-03-03T00:23:50.608Z,21.90
2019-03-03T00:26:20.069Z,21.48
2019-03-03T00:28:49.637Z,22.80
2019-03-03T00:31:22.253Z,22.98
2019-03-03T00:33:51.730Z,22.32
2019-03-03T00:36:21.378Z,22.10
2019-03-03T00:38:55.138Z,20.00
2019-03-03T00:41:32.687Z,20.88
2019-03-03T00:44:21.834Z,19.87
2019-03-03T00:46:52.960Z,20.05
2019-03-03T00:49:24.210Z,19.73
2019-03-03T00:51:55.490Z,19.37
2019-03-03T00:54:29.608Z,18.12
2019-03-03T00:57:00.721Z,19.50
2019-03-03T00:59:34.534Z,18.55
2019-03-03T01:02:06.173Z,18.50
2019-03-03T01:04:37.244Z,17.57
2019-03-03T01:07:23.313Z,18.42
2019-03-03T01:10:09.467Z,17.87
2019-03-03T01:12:43.389Z,17.00
2019-03-03T01:15:14.900Z,17.07
2019-03-03T01:17:48.796Z,15.93
2019-03-03T01:20:19.873Z,16.37
2019-03-03T01:23:07.114Z,15.90
2019-03-03T01:25:36.547Z,15.18
2019-03-03T01:28:06.167Z,15.75
2019-03-03T01:30:35.639Z,14.55
2019-03-03T01:33:05.180Z,14.20
2019-03-03T01:35:34.653Z,14.60
2019-03-03T01:38:04.403Z,13.85
2019-03-03T01:40:34.406Z,14.20
2019-03-03T01:43:04.404Z,14.23
2019-03-03T01:45:33.893Z,15.10
2019-03-03T01:48:04.511Z,13.75
2019-03-03T01:50:33.993Z,14.30
2019-03-03T01:53:04.403Z,14.35
2019-03-03T01:55:33.993Z,14.00
2019-03-03T01:58:04.394Z,13.43
2019-03-03T02:00:34.084Z,12.73
2019-03-03T02:03:04.611Z,13.20
2019-03-03T02:05:34.082Z,12.23
2019-03-03T02:08:04.458Z,13.13
2019-03-03T02:10:34.001Z,13.38
2019-03-03T02:13:04.647Z,12.10
2019-03-03T02:15:34.166Z,12.95
2019-03-03T02:18:04.453Z,13.43
2019-03-03T02:20:33.906Z,12.18
2019-03-03T02:23:04.347Z,13.05
2019-03-03T02:25:33.950Z,12.45
2019-03-03T02:28:04.465Z,11.95
2019-03-03T02:30:34.373Z,11.28
2019-03-03T02:33:04.383Z,11.57
2019-03-03T02:35:34.026Z,11.85
2019-03-03T02:38:04.393Z,11.00
2019-03-03T02:40:33.951Z,11.45
2019-03-03T02:43:04.433Z,11.55
2019-03-03T02:45:34.893Z,11.08
2019-03-03T02:48:04.326Z,10.77
2019-03-03T02:50:33.846Z,10.55
2019-03-03T02:53:04.393Z,9.94
2019-03-03T02:55:33.856Z,11.12
2019-03-03T02:58:04.323Z,9.60
2019-03-03T03:00:35.431Z,9.78
2019-03-03T03:03:14.839Z,9.10
2019-03-03T03:06:02.311Z,8.73
2019-03-03T03:08:33.386Z,8.30
2019-03-03T03:11:20.598Z,8.45
2019-03-03T03:14:09.942Z,7.90
2019-03-03T03:16:41.051Z,8.08
2019-03-03T03:19:12.121Z,7.70
2019-03-03T03:21:45.894Z,8.25
2019-03-03T03:24:19.873Z,8.20
2019-03-03T03:26:56.699Z,7.90
2019-03-03T03:29:33.814Z,7.75
2019-03-03T03:32:04.922Z,8.15
2019-03-03T03:34:39.958Z,8.65
2019-03-03T03:37:20.226Z,9.23
2019-03-03T03:39:53.959Z,9.28
2019-03-03T03:42:27.871Z,9.20
2019-03-03T03:45:05.244Z,9.10
2019-03-03T03:47:42.139Z,9.60
2019-03-03T03:50:13.350Z,10.72
2019-03-03T03:53:02.635Z,10.23
2019-03-03T03:55:40.012Z,10.35
2019-03-03T03:58:16.935Z,10.13
2019-03-03T04:00:54.097Z,11.20
2019-03-03T04:03:25.213Z,10.43
2019-03-03T04:05:56.658Z,10.00
2019-03-03T04:08:27.768Z,10.18
2019-03-03T04:11:01.545Z,9.90
2019-03-03T04:13:38.762Z,10.65
2019-03-03T04:16:12.532Z,9.98
2019-03-03T04:18:43.726Z,10.00
2019-03-03T04:21:20.499Z,9.33
2019-03-03T04:23:57.392Z,9.68
2019-03-03T04:26:31.177Z,9.23
2019-03-03T04:29:11.095Z,8.60
2019-03-03T04:31:42.215Z,8.63
2019-03-03T04:34:13.308Z,9.03
2019-03-03T04:36:53.516Z,8.73
2019-03-03T04:39:24.625Z,8.03
2019-03-03T04:42:01.141Z,8.00
2019-03-03T04:44:50.294Z,8.10
2019-03-03T04:47:27.172Z,7.65
2019-03-03T04:50:11.047Z,7.45
2019-03-03T04:52:44.943Z,7.15
2019-03-03T04:55:31.997Z,7.47
2019-03-03T04:58:03.068Z,6.80
2019-03-03T05:00:34.188Z,6.60
2019-03-03T05:03:09.218Z,6.45
2019-03-03T05:05:43.025Z,6.40
2019-03-03T05:08:16.885Z,6.30
2019-03-03T05:11:02.925Z,5.60
2019-03-03T05:13:36.955Z,5.60
2019-03-03T05:16:13.929Z,5.60
2019-03-03T05:18:46.161Z,5.17
2019-03-03T05:21:15.583Z,5.17
2019-03-03T05:23:45.071Z,5.20
2019-03-03T05:26:14.492Z,5.53
2019-03-03T05:28:43.923Z,4.97
2019-03-03T05:31:13.421Z,4.60
2019-03-03T05:33:42.949Z,5.03
2019-03-03T05:36:12.387Z,5.20
2019-03-03T05:38:42.676Z,4.67
2019-03-03T05:41:12.384Z,4.95
2019-03-03T05:43:41.869Z,4.72
2019-03-03T05:46:12.401Z,4.37
2019-03-03T05:48:41.866Z,4.50
2019-03-03T05:51:11.289Z,4.23
2019-03-03T05:53:40.759Z,4.40
2019-03-03T05:56:10.237Z,4.50
2019-03-03T05:58:39.657Z,4.62
2019-03-03T06:01:09.116Z,4.62
2019-03-03T06:03:39.587Z,4.80
2019-03-03T06:06:09.071Z,4.80
2019-03-03T06:08:38.527Z,4.67
2019-03-03T06:11:07.967Z,4.37
2019-03-03T06:13:37.403Z,5.00
2019-03-03T06:16:06.973Z,5.05
2019-03-03T06:18:36.512Z,5.12
2019-03-03T06:21:05.991Z,4.45
2019-03-03T06:23:35.448Z,5.03
2019-03-03T06:26:04.911Z,4.70
2019-03-03T06:28:34.379Z,4.25
2019-03-03T06:31:04.430Z,5.25
2019-03-03T06:33:33.890Z,4.60
2019-03-03T06:36:04.404Z,4.57
2019-03-03T06:38:33.834Z,4.70
2019-03-03T06:41:04.429Z,4.96
2019-03-03T06:43:33.855Z,5.12
2019-03-03T06:46:04.347Z,4.70
2019-03-03T06:48:33.771Z,4.80
2019-03-03T06:51:03.251Z,4.58
2019-03-03T06:53:32.709Z,5.08
2019-03-03T06:56:02.171Z,4.87
2019-03-03T06:58:31.629Z,5.08
2019-03-03T07:01:01.078Z,5.28
2019-03-03T07:03:31.615Z,5.12
2019-03-03T07:06:01.075Z,5.30
2019-03-03T07:08:30.499Z,6.00
2019-03-03T07:10:59.923Z,5.00
2019-03-03T07:13:29.392Z,5.20
2019-03-03T07:15:58.856Z,5.22
2019-03-03T07:18:28.290Z,5.10
2019-03-03T07:20:57.753Z,5.08
2019-03-03T07:23:27.203Z,4.75
2019-03-03T07:25:56.636Z,5.20
2019-03-03T07:28:26.078Z,4.70
2019-03-03T07:30:55.731Z,5.40
2019-03-03T07:33:26.784Z,4.90
2019-03-03T07:35:56.443Z,5.12
2019-03-03T07:38:25.895Z,5.30
2019-03-03T07:40:55.454Z,4.90
2019-03-03T07:43:24.908Z,5.22
2019-03-03T07:45:54.465Z,4.97
2019-03-03T07:48:23.926Z,5.10
2019-03-03T07:50:53.350Z,4.70
2019-03-03T07:53:22.797Z,4.90
2019-03-03T07:55:52.227Z,5.30
2019-03-03T07:58:21.690Z,5.22
2019-03-03T08:00:51.799Z,5.83
2019-03-03T08:03:21.271Z,5.40
2019-03-03T08:05:50.811Z,5.25
2019-03-03T08:08:20.299Z,4.97
2019-03-03T08:10:49.761Z,5.17
2019-03-03T08:13:20.355Z,5.05
2019-03-03T08:15:49.832Z,4.37
2019-03-03T08:18:19.256Z,4.80
2019-03-03T08:20:48.723Z,4.62
2019-03-03T08:23:18.145Z,4.40
2019-03-03T08:25:47.632Z,4.60
2019-03-03T08:28:17.124Z,4.33
2019-03-03T08:30:46.585Z,4.60
2019-03-03T08:33:16.153Z,3.90
2019-03-03T08:35:45.604Z,4.40
2019-03-03T08:38:15.096Z,4.67
2019-03-03T08:40:44.650Z,4.12
2019-03-03T08:43:18.685Z,4.00
2019-03-03T08:45:52.618Z,4.58
2019-03-03T08:48:26.431Z,4.28
2019-03-03T08:50:57.573Z,4.10
2019-03-03T08:53:37.866Z,4.15
2019-03-03T08:56:09.006Z,3.47
2019-03-03T08:58:46.038Z,3.95
2019-03-03T09:01:33.287Z,3.80
2019-03-03T09:04:07.322Z,4.08
2019-03-03T09:06:44.145Z,4.05
2019-03-03T09:09:16.162Z,3.75
2019-03-03T09:12:01.492Z,3.75
2019-03-03T09:14:47.982Z,3.70
2019-03-03T09:17:19.102Z,4.15
2019-03-03T09:19:56.112Z,4.10
2019-03-03T09:22:36.125Z,3.80
2019-03-03T09:25:15.190Z,4.20
2019-03-03T09:28:01.475Z,4.45
2019-03-03T09:30:32.697Z,4.65
2019-03-03T09:33:18.877Z,4.42
2019-03-03T09:36:06.296Z,4.00
2019-03-03T09:38:40.460Z,4.60
2019-03-03T09:41:11.607Z,4.05
2019-03-03T09:43:42.706Z,4.72
2019-03-03T09:46:22.666Z,4.83
2019-03-03T09:48:56.728Z,4.50
2019-03-03T09:51:27.851Z,4.62
2019-03-03T09:53:58.915Z,4.22
2019-03-03T09:56:39.522Z,4.72
2019-03-03T09:59:27.611Z,4.40
2019-03-03T10:01:58.768Z,4.87
2019-03-03T10:04:48.335Z,4.83
2019-03-03T10:07:28.465Z,4.72
2019-03-03T10:10:15.988Z,4.50
2019-03-03T10:12:52.918Z,4.97
2019-03-03T10:15:24.008Z,4.70
2019-03-03T10:17:55.267Z,4.65
2019-03-03T10:20:26.415Z,4.30
2019-03-03T10:23:09.672Z,4.40
2019-03-03T10:25:40.770Z,4.45
2019-03-03T10:28:13.090Z,4.30
2019-03-03T10:30:44.181Z,4.42
2019-03-03T10:33:17.763Z,4.10
2019-03-03T10:35:51.945Z,3.77
2019-03-03T10:38:25.902Z,3.97
2019-03-03T10:41:03.007Z,4.00
2019-03-03T10:43:52.490Z,4.30
2019-03-03T10:46:35.103Z,4.05
2019-03-03T10:49:12.152Z,4.03
2019-03-03T10:51:44.319Z,4.30
2019-03-03T10:54:33.465Z,4.00
2019-03-03T10:57:07.577Z,3.80
2019-03-03T10:59:54.937Z,4.05
2019-03-03T11:02:38.813Z,4.00
2019-03-03T11:05:27.905Z,4.15
2019-03-03T11:08:10.763Z,3.55
2019-03-03T11:10:44.799Z,3.45
2019-03-03T11:13:16.068Z,3.47
2019-03-03T11:15:56.095Z,3.58
2019-03-03T11:18:32.835Z,3.08
2019-03-03T11:21:12.874Z,2.90
2019-03-03T11:23:44.029Z,3.52
2019-03-03T11:26:15.336Z,3.40
2019-03-03T11:28:49.726Z,3.60
2019-03-03T11:31:20.874Z,3.50
2019-03-03T11:33:57.907Z,4.00
2019-03-03T11:36:34.833Z,3.80
2019-03-03T11:39:23.900Z,3.72
2019-03-03T11:42:11.191Z,3.70
2019-03-03T11:44:48.315Z,3.87
2019-03-03T11:47:31.491Z,4.00
2019-03-03T11:50:14.921Z,3.67
2019-03-03T11:52:45.971Z,4.10
2019-03-03T11:55:17.104Z,4.28
2019-03-03T11:57:48.261Z,4.30
2019-03-03T12:00:32.156Z,4.00
2019-03-03T12:03:06.170Z,4.33
2019-03-03T12:05:37.343Z,4.45
2019-03-03T12:08:18.661Z,4.25
2019-03-03T12:11:05.885Z,4.85
2019-03-03T12:13:36.984Z,5.25
2019-03-03T12:16:09.285Z,4.67
2019-03-03T12:18:40.843Z,5.20
2019-03-03T12:21:14.735Z,5.00
2019-03-03T12:23:45.804Z,5.03
2019-03-03T12:26:22.877Z,4.93
2019-03-03T12:29:11.909Z,5.17
2019-03-03T12:31:45.496Z,4.80
2019-03-03T12:34:28.718Z,5.40
2019-03-03T12:37:05.885Z,5.10
2019-03-03T12:39:42.846Z,5.80
2019-03-03T12:42:14.585Z,5.30
2019-03-03T12:44:46.054Z,5.25
2019-03-03T12:47:29.128Z,5.72
2019-03-03T12:50:16.839Z,5.30
2019-03-03T12:53:03.973Z,5.15
2019-03-03T12:55:51.189Z,5.62
2019-03-03T12:58:37.966Z,5.37
2019-03-03T13:01:12.157Z,5.35
2019-03-03T13:03:52.751Z,5.20
2019-03-03T13:06:30.471Z,5.62
2019-03-03T13:09:01.818Z,5.50
2019-03-03T13:11:37.316Z,5.33
2019-03-03T13:14:11.569Z,5.55
2019-03-03T13:16:59.558Z,5.53
2019-03-03T13:19:42.914Z,4.90
2019-03-03T13:22:30.064Z,5.00
2019-03-03T13:25:03.867Z,5.10
2019-03-03T13:27:51.555Z,4.87
2019-03-03T13:30:22.762Z,4.53
2019-03-03T13:33:08.868Z,5.33
2019-03-03T13:35:56.243Z,4.40
2019-03-03T13:38:27.297Z,4.30
2019-03-03T13:40:58.416Z,4.90
2019-03-03T13:43:27.992Z,4.87
2019-03-03T13:45:57.562Z,4.65
2019-03-03T13:48:26.994Z,4.55
2019-03-03T13:50:56.550Z,5.00
2019-03-03T13:53:26.112Z,5.33
2019-03-03T13:55:55.609Z,4.55
2019-03-03T13:58:26.362Z,4.90
2019-03-03T14:00:55.957Z,5.17
2019-03-03T14:03:26.290Z,4.95
2019-03-03T14:05:55.851Z,4.92
2019-03-03T14:08:25.526Z,5.30
2019-03-03T14:10:55.008Z,5.53
2019-03-03T14:13:24.476Z,5.40
2019-03-03T14:15:53.903Z,5.22
2019-03-03T14:18:23.387Z,5.73
2019-03-03T14:20:54.018Z,5.42
2019-03-03T14:23:23.594Z,5.37
2019-03-03T14:25:53.100Z,5.30
2019-03-03T14:28:22.656Z,5.60
2019-03-03T14:30:52.136Z,5.40
2019-03-03T14:33:21.588Z,5.53
2019-03-03T14:35:52.023Z,5.53
2019-03-03T14:38:21.494Z,6.03
2019-03-03T14:40:50.968Z,6.53
2019-03-03T14:43:20.801Z,6.22
2019-03-03T14:45:50.295Z,6.22
2019-03-03T14:48:20.357Z,5.25
2019-03-03T14:50:49.830Z,5.40
2019-03-03T14:53:19.328Z,4.78
2019-03-03T14:55:48.811Z,4.55
2019-03-03T14:58:18.299Z,5.00
2019-03-03T15:00:48.090Z,4.62
2019-03-03T15:03:17.575Z,5.03
2019-03-03T15:05:47.088Z,5.35
2019-03-03T15:08:16.698Z,4.80
2019-03-03T15:10:46.138Z,5.15
2019-03-03T15:13:16.162Z,5.35
2019-03-03T15:15:46.587Z,4.83
2019-03-03T15:18:16.306Z,5.00
2019-03-03T15:20:45.928Z,4.70
2019-03-03T15:23:16.174Z,5.30
2019-03-03T15:25:46.245Z,4.87
2019-03-03T15:28:17.765Z,5.00
2019-03-03T15:30:47.426Z,5.20
2019-03-03T15:33:17.240Z,5.08
2019-03-03T15:35:47.116Z,5.25
2019-03-03T15:38:17.983Z,5.28
2019-03-03T15:40:48.700Z,5.40
2019-03-03T15:43:20.550Z,5.03
2019-03-03T15:45:50.337Z,5.58
2019-03-03T15:48:19.992Z,5.37
2019-03-03T15:50:49.433Z,5.90
2019-03-03T15:53:18.991Z,5.60
2019-03-03T15:55:48.530Z,5.40
2019-03-03T15:58:18.995Z,5.47
2019-03-03T16:00:48.536Z,6.20
2019-03-03T16:03:18.033Z,6.35
2019-03-03T16:05:47.550Z,6.10
2019-03-03T16:08:17.023Z,6.05
2019-03-03T16:10:46.529Z,6.00
2019-03-03T16:13:16.213Z,5.60
2019-03-03T16:15:45.728Z,6.25
2019-03-03T16:18:15.211Z,5.80
2019-03-03T16:20:44.947Z,5.60
2019-03-03T16:23:14.532Z,6.20
2019-03-03T16:25:44.125Z,5.35
2019-03-03T16:28:13.637Z,6.50
2019-03-03T16:30:43.495Z,6.28
2019-03-03T16:33:20.154Z,6.10
2019-03-03T16:35:44.123Z,5.20
2019-03-03T16:38:13.736Z,5.62
2019-03-03T16:40:43.210Z,4.90
2019-03-03T16:43:12.755Z,5.25
2019-03-03T16:45:42.748Z,5.10
2019-03-03T16:48:12.209Z,4.80
2019-03-03T16:50:42.058Z,4.80
2019-03-03T16:53:11.533Z,4.30
2019-03-03T16:55:41.214Z,4.80
2019-03-03T16:58:10.753Z,4.35
2019-03-03T17:00:40.185Z,4.47
2019-03-03T17:03:09.669Z,4.60
2019-03-03T17:05:39.094Z,3.80
2019-03-03T17:08:09.178Z,4.20
2019-03-03T17:10:38.666Z,4.17
2019-03-03T17:13:08.400Z,4.22
2019-03-03T17:15:37.861Z,4.17
2019-03-03T17:18:07.319Z,3.90
2019-03-03T17:20:36.772Z,4.03
2019-03-03T17:23:06.575Z,3.87
2019-03-03T17:25:36.035Z,3.85
2019-03-03T17:28:05.537Z,4.08
2019-03-03T17:30:34.962Z,3.30
2019-03-03T17:33:04.446Z,3.42
2019-03-03T17:35:33.912Z,3.30
2019-03-03T17:38:04.423Z,3.54
2019-03-03T17:40:33.845Z,3.55
2019-03-03T17:43:03.312Z,3.72
2019-03-03T17:45:32.753Z,3.75
2019-03-03T17:48:02.222Z,3.60
2019-03-03T17:50:32.187Z,3.67
2019-03-03T17:53:01.675Z,4.08
2019-03-03T17:55:31.543Z,4.03
2019-03-03T17:58:01.028Z,3.83
2019-03-03T18:00:32.822Z,3.92
2019-03-03T18:03:02.312Z,4.35
2019-03-03T18:05:31.780Z,4.25
2019-03-03T18:08:01.257Z,4.62
2019-03-03T18:10:30.828Z,4.10
2019-03-03T18:13:00.299Z,4.23
2019-03-03T18:15:29.732Z,3.92
2019-03-03T18:17:59.329Z,4.30
2019-03-03T18:20:28.747Z,4.22
2019-03-03T18:22:58.256Z,4.28
2019-03-03T18:25:27.745Z,4.60
2019-03-03T18:27:57.209Z,4.37
2019-03-03T18:30:28.114Z,4.47
2019-03-03T18:32:57.603Z,4.45
2019-03-03T18:35:27.068Z,5.00
2019-03-03T18:37:56.545Z,4.50
2019-03-03T18:40:26.873Z,4.42
2019-03-03T18:42:56.347Z,4.70
2019-03-03T18:45:25.896Z,4.40
2019-03-03T18:47:55.385Z,5.62
2019-03-03T18:50:29.113Z,5.10
2019-03-03T18:52:59.987Z,6.15
2019-03-03T18:55:29.648Z,4.80
2019-03-03T18:57:59.089Z,4.80
2019-03-03T19:00:32.296Z,4.70
2019-03-03T19:03:01.727Z,4.87
2019-03-03T19:05:32.269Z,5.55
2019-03-03T19:08:01.771Z,5.15
2019-03-03T19:10:36.210Z,7.03
2019-03-03T19:13:05.853Z,9.88
2019-03-03T19:15:35.550Z,5.40
2019-03-03T19:18:05.498Z,5.40
2019-03-03T19:20:35.040Z,6.40
2019-03-03T19:23:05.044Z,4.57
2019-03-03T19:25:34.508Z,5.00
2019-03-03T19:28:04.421Z,5.00
2019-03-03T19:30:33.843Z,4.97
2019-03-03T19:33:15.549Z,4.85
2019-03-03T19:35:45.250Z,5.28
2019-03-03T19:38:14.669Z,4.75
2019-03-03T19:40:44.328Z,5.08
2019-03-03T19:43:13.776Z,4.80
2019-03-03T19:45:45.899Z,4.92
2019-03-03T19:48:15.480Z,5.30
2019-03-03T19:50:45.047Z,5.58
2019-03-03T19:53:14.533Z,5.33
2019-03-03T19:55:44.000Z,6.10
2019-03-03T19:58:14.496Z,5.28
2019-03-03T20:00:44.667Z,5.30
2019-03-03T20:03:14.330Z,5.05
2019-03-03T20:05:43.765Z,4.95
2019-03-03T20:08:13.347Z,5.45
2019-03-03T20:10:43.126Z,4.85
2019-03-03T20:13:12.728Z,5.43
2019-03-03T20:15:42.222Z,4.92
2019-03-03T20:18:13.635Z,5.12
2019-03-03T20:20:43.687Z,5.28
2019-03-03T20:23:13.869Z,5.40
2019-03-03T20:25:43.582Z,5.60
2019-03-03T20:28:14.214Z,5.78
2019-03-03T20:30:45.215Z,5.47
2019-03-03T20:33:15.007Z,5.35
2019-03-03T20:35:44.859Z,5.65
2019-03-03T20:38:16.788Z,5.50
2019-03-03T20:40:46.581Z,5.90
2019-03-03T20:43:16.079Z,5.60
2019-03-03T20:45:45.869Z,6.00
2019-03-03T20:48:15.418Z,5.70
2019-03-03T20:50:45.509Z,5.83
2019-03-03T20:53:16.010Z,5.67
2019-03-03T20:55:45.493Z,6.03
2019-03-03T20:58:15.438Z,5.62
2019-03-03T21:00:45.541Z,6.58
2019-03-03T21:03:16.039Z,6.17
2019-03-03T21:05:46.221Z,5.95
2019-03-03T21:08:16.637Z,6.42
2019-03-03T21:10:46.625Z,6.50
2019-03-03T21:13:16.846Z,6.78
2019-03-03T21:15:46.805Z,6.45
2019-03-03T21:18:16.995Z,6.30
2019-03-03T21:20:47.211Z,6.40
2019-03-03T21:23:16.696Z,6.92
2019-03-03T21:25:46.570Z,7.22
2019-03-03T21:28:16.907Z,7.12
2019-03-03T21:30:46.737Z,7.50
2019-03-03T21:33:16.189Z,7.45
2019-03-03T21:35:45.664Z,8.33
2019-03-03T21:38:15.741Z,7.80
2019-03-03T21:40:45.386Z,7.53
2019-03-03T21:43:15.512Z,7.25
2019-03-03T21:45:45.865Z,7.53
2019-03-03T21:48:15.608Z,6.60
2019-03-03T21:50:45.365Z,7.03
2019-03-03T21:53:14.918Z,7.33
2019-03-03T21:55:44.419Z,7.03
2019-03-03T21:58:14.721Z,6.83
2019-03-03T22:00:44.979Z,6.95
2019-03-03T22:03:14.645Z,6.83
2019-03-03T22:05:44.660Z,6.80
2019-03-03T22:08:14.082Z,7.00
2019-03-03T22:10:43.870Z,6.47
2019-03-03T22:13:14.387Z,6.95
2019-03-03T22:15:44.433Z,6.35
2019-03-03T22:18:14.707Z,6.78
2019-03-03T22:20:45.915Z,6.62
2019-03-03T22:23:15.352Z,6.57
2019-03-03T22:25:44.821Z,6.92
2019-03-03T22:28:14.349Z,6.20
2019-03-03T22:30:43.786Z,6.83
2019-03-03T22:33:13.594Z,6.58
2019-03-03T22:35:43.008Z,7.00
2019-03-03T22:38:12.777Z,7.05
2019-03-03T22:40:42.644Z,6.62
2019-03-03T22:43:12.072Z,6.03
2019-03-03T22:45:41.554Z,6.53
2019-03-03T22:48:11.015Z,6.30
2019-03-03T22:50:40.435Z,6.70
2019-03-03T22:53:09.859Z,5.95
2019-03-03T22:55:40.522Z,6.25
2019-03-03T22:58:10.383Z,6.28
2019-03-03T23:00:55.010Z,6.70
2019-03-03T23:03:39.934Z,6.22
2019-03-03T23:06:15.006Z,6.23
2019-03-03T23:09:05.075Z,6.28
2019-03-03T23:11:48.118Z,6.12
2019-03-03T23:14:26.620Z,6.58
2019-03-03T23:17:23.151Z,6.17
2019-03-03T23:19:58.368Z,6.47
2019-03-03T23:22:50.535Z,6.80
2019-03-03T23:25:52.113Z,6.03
2019-03-03T23:28:21.880Z,6.30
2019-03-03T23:30:51.489Z,6.70
2019-03-03T23:33:20.912Z,6.58
2019-03-03T23:35:50.587Z,6.30
2019-03-03T23:38:20.141Z,6.20
2019-03-03T23:40:49.603Z,6.08
2019-03-03T23:43:19.168Z,5.95
2019-03-03T23:45:48.633Z,6.30
2019-03-03T23:48:18.086Z,5.95
2019-03-03T23:50:47.507Z,6.22
2019-03-03T23:53:16.964Z,6.33
2019-03-03T23:55:46.398Z,5.85
2019-03-03T23:58:15.861Z,6.25
